KSHR/SHR METAR and TAF weather

Enter ICAO airport designator
Station Type Date Time Source
KSHR METAR 2019/08/25 19:53 UTC NOAA

KSHR 251953Z AUTO VRB03KT 10SM CLR 26/08 A2985 RMK AO2 SLP072 T02560078


Station Type Date Time Source
KSHR Decoded METAR 2019/08/25 19:53 UTC NOAA

Station name not available
Aug 25, 2019 - 03:53 PM EDT / 2019.08.25 1953 UTC
Wind: Variable at 3 MPH (3 KT):0
Visibility: 10 mile(s):0
Sky conditions: clear
Temperature: 78.1 F (25.6 C)
Dew Point: 46.0 F (7.8 C)
Relative Humidity: 32%
Pressure (altimeter): 29.85 in. Hg (1010 hPa)
ob: KSHR 251953Z AUTO VRB03KT 10SM CLR 26/08 A2985 RMK AO2 SLP072 T02560078
cycle: 20

Station Type Date Time Source
KSHR TAF 2019/08/25 18:30 UTC NOAA

TAF KSHR 251728Z 2518/2618 31009KT P6SM FEW100
FM252100 VRB05G15KT P6SM VCTS SCT070CB BKN100
FM260000 34012KT P6SM -SHRA VCTS BKN060CB
FM260400 31010KT P6SM VCSH BKN060
FM260700 30012KT P6SM BKN080

Example: see airport list